Time;durP1;ratioP1;P1;durP2;ratioP2;P2;SDS_P1;SDS_P2;PMS_P1;PMS_P2;Temp;Humidity;BMP_temperature;BMP_pressure;BME280_temperature;BME280_humidity;BME280_pressure;Samples;Min_cycle;Max_cycle;Signal;HPM_P1;HPM_P2
2022/10/28 00:00:33;;;;;;;;;;;;;;;12.11;100.00;101810.03;5550173;32;35222;-71
2022/10/28 00:03:40;;;;;;;;;;;;;;;12.08;100.00;101810.34;5550326;32;35125;-71
2022/10/28 00:06:44;;;;;;;;;;;;;;;12.20;100.00;101814.50;5550168;32;34473;-71
2022/10/28 00:09:49;;;;;;;;;;;;;;;12.17;100.00;101811.28;5550136;32;34530;-71
2022/10/28 00:12:54;;;;;;;;;;;;;;;12.09;100.00;101816.50;5536513;32;34548;-71
2022/10/28 00:16:10;;;;;;;;;;;;;;;12.24;100.00;101803.59;5550023;32;34486;-71
2022/10/28 00:19:14;;;;;;;;;;;;;;;12.00;100.00;101799.59;5549752;32;34519;-71
2022/10/28 00:22:21;;;;;;;;;;;;;;;11.91;100.00;101797.75;5549966;32;35250;-71
2022/10/28 00:25:26;;;;;;;;;;;;;;;11.97;100.00;101801.66;5549821;32;34582;-71
2022/10/28 00:28:32;;;;;;;;;;;;;;;11.91;100.00;101802.25;5549729;32;35119;-71
2022/10/28 00:31:38;;;;;;;;;;;;;;;11.93;100.00;101810.91;5549624;32;35228;-70
2022/10/28 00:34:45;;;;;;;;;;;;;;;11.84;100.00;101812.59;5536653;32;34855;-71
2022/10/28 00:37:55;;;;;;;;;;;;;;;11.88;100.00;101818.47;5549615;32;34968;-70
2022/10/28 00:41:05;;;;;;;;;;;;;;;11.83;100.00;101810.91;5535687;32;36056;-71
2022/10/28 00:44:31;;;;;;;;;;;;;;;11.82;100.00;101811.91;5549518;32;34970;-71
2022/10/28 00:47:41;;;;;;;;;;;;;;;11.88;100.00;101806.03;5549508;32;34955;-71
2022/10/28 00:50:48;;;;;;;;;;;;;;;11.91;100.00;101805.72;5549745;32;35141;-71
2022/10/28 00:53:56;;;;;;;;;;;;;;;11.97;100.00;101804.31;5549366;32;34510;-71
2022/10/28 00:57:05;;;;;;;;;;;;;;;11.92;100.00;101798.59;5551441;32;34961;-71
2022/10/28 01:00:15;;;;;;;;;;;;;;;11.89;100.00;101796.22;5551956;32;34537;-70
2022/10/28 01:03:22;;;;;;;;;;;;;;;12.00;100.00;101796.09;5552040;32;35020;-71
2022/10/28 01:06:30;;;;;;;;;;;;;;;12.03;100.00;101801.09;5551840;32;34645;-71
2022/10/28 01:09:37;;;;;;;;;;;;;;;11.89;100.00;101801.53;5537863;32;33830;-70
2022/10/28 01:12:45;;;;;;;;;;;;;;;11.84;100.00;101794.00;5551625;32;35174;-71
2022/10/28 01:16:02;;;;;;;;;;;;;;;11.81;100.00;101796.94;5551757;32;34454;-71
2022/10/28 01:19:26;;;;;;;;;;;;;;;11.78;100.00;101802.53;5537716;32;35837;-71
2022/10/28 01:22:41;;;;;;;;;;;;;;;11.86;100.00;101791.22;5551679;32;34652;-71
2022/10/28 01:25:48;;;;;;;;;;;;;;;11.86;100.00;101799.19;5551645;32;34615;-71
2022/10/28 01:29:16;;;;;;;;;;;;;;;11.88;100.00;101789.22;5537697;32;35459;-71
2022/10/28 01:32:23;;;;;;;;;;;;;;;11.87;100.00;101787.53;5551641;32;34566;-71
2022/10/28 01:35:36;;;;;;;;;;;;;;;11.85;100.00;101786.84;5551782;32;33942;-71
2022/10/28 01:38:51;;;;;;;;;;;;;;;11.87;100.00;101788.38;5538045;32;34226;-71
2022/10/28 01:41:59;;;;;;;;;;;;;;;11.92;100.00;101782.63;5551576;32;34574;-71
2022/10/28 01:45:06;;;;;;;;;;;;;;;11.93;100.00;101787.81;5551461;32;34521;-71
2022/10/28 01:48:28;;;;;;;;;;;;;;;11.85;100.00;101784.19;5551618;32;34844;-71
2022/10/28 01:51:46;;;;;;;;;;;;;;;11.72;100.00;101781.78;5551471;32;34451;-71
2022/10/28 01:54:58;;;;;;;;;;;;;;;11.74;100.00;101787.84;5551558;32;34487;-71
2022/10/28 01:58:06;;;;;;;;;;;;;;;11.78;100.00;101773.28;5538341;32;34920;-71
2022/10/28 02:01:15;;;;;;;;;;;;;;;11.70;100.00;101776.63;5551413;32;34582;-71
2022/10/28 02:04:22;;;;;;;;;;;;;;;11.71;100.00;101780.13;5551394;32;34971;-70
2022/10/28 02:07:31;;;;;;;;;;;;;;;11.55;100.00;101775.38;5551025;32;34879;-70
2022/10/28 02:10:42;;;;;;;;;;;;;;;11.50;100.00;101776.75;5551351;32;34520;-71
2022/10/28 02:13:53;;;;;;;;;;;;;;;11.49;100.00;101775.06;5551368;32;34985;-71
2022/10/28 02:17:17;;;;;;;;;;;;;;;11.52;100.00;101777.47;5551360;32;35158;-71
2022/10/28 02:20:29;;;;;;;;;;;;;;;11.50;100.00;101774.94;5551105;32;34495;-70
2022/10/28 02:23:42;;;;;;;;;;;;;;;11.46;100.00;101778.87;5537092;32;35161;-70
2022/10/28 02:26:53;;;;;;;;;;;;;;;11.47;100.00;101785.87;5551124;32;34864;-71
2022/10/28 02:30:05;;;;;;;;;;;;;;;11.49;100.00;101777.75;5551063;32;34930;-71
2022/10/28 02:33:15;;;;;;;;;;;;;;;11.48;100.00;101776.06;5551163;32;34562;-71
2022/10/28 02:36:23;;;;;;;;;;;;;;;11.54;100.00;101776.34;5537124;32;35385;-71
2022/10/28 02:39:30;;;;;;;;;;;;;;;11.58;100.00;101769.75;5537326;32;34340;-71
2022/10/28 02:42:40;;;;;;;;;;;;;;;11.70;100.00;101773.13;5551018;32;35097;-71
2022/10/28 02:45:49;;;;;;;;;;;;;;;11.72;100.00;101785.31;5550999;32;34710;-71
2022/10/28 02:49:01;;;;;;;;;;;;;;;11.72;100.00;101771.16;5551013;32;34894;-71
2022/10/28 02:52:07;;;;;;;;;;;;;;;11.71;100.00;101770.31;5550993;32;34608;-71
2022/10/28 02:55:19;;;;;;;;;;;;;;;11.70;100.00;101779.28;5550969;32;34938;-71
2022/10/28 02:58:26;;;;;;;;;;;;;;;11.70;100.00;101766.00;5537103;32;34524;-71
2022/10/28 03:01:32;;;;;;;;;;;;;;;11.63;100.00;101769.34;5550852;32;34499;-71
2022/10/28 03:04:38;;;;;;;;;;;;;;;11.58;100.00;101768.91;5551216;32;34578;-71
2022/10/28 03:07:47;;;;;;;;;;;;;;;11.70;100.00;101771.31;5536933;32;34358;-71
2022/10/28 03:10:56;;;;;;;;;;;;;;;11.73;100.00;101764.88;5550786;32;35193;-71
2022/10/28 03:14:04;;;;;;;;;;;;;;;11.64;100.00;101768.38;5550798;32;34536;-71
2022/10/28 03:17:15;;;;;;;;;;;;;;;11.68;100.00;101769.75;5550521;32;34986;-70
2022/10/28 03:20:21;;;;;;;;;;;;;;;11.83;100.00;101771.03;5550196;32;35172;-71
2022/10/28 03:23:26;;;;;;;;;;;;;;;11.80;100.00;101776.66;5536883;32;35438;-71
2022/10/28 03:26:33;;;;;;;;;;;;;;;11.88;100.00;101775.94;5550495;32;35371;-71
2022/10/28 03:29:40;;;;;;;;;;;;;;;11.86;100.00;101772.59;5537447;32;34511;-71
2022/10/28 03:32:50;;;;;;;;;;;;;;;11.98;100.00;101774.09;5537697;32;35195;-71
2022/10/28 03:35:58;;;;;;;;;;;;;;;11.84;100.00;101772.72;5550497;32;35036;-71
2022/10/28 03:39:05;;;;;;;;;;;;;;;11.76;100.00;101775.25;5536771;32;35565;-71
2022/10/28 03:42:14;;;;;;;;;;;;;;;11.80;100.00;101766.00;5550550;32;35250;-71
2022/10/28 03:45:21;;;;;;;;;;;;;;;11.83;100.00;101767.53;5550820;32;34384;-71
2022/10/28 03:48:30;;;;;;;;;;;;;;;11.79;100.00;101771.47;5550516;32;34533;-72
2022/10/28 03:51:37;;;;;;;;;;;;;;;11.82;100.00;101758.72;5536529;32;35392;-72
2022/10/28 03:54:44;;;;;;;;;;;;;;;11.84;100.00;101770.06;5550335;32;34469;-72
2022/10/28 03:57:53;;;;;;;;;;;;;;;11.76;100.00;101767.28;5550423;32;34512;-72
2022/10/28 04:01:01;;;;;;;;;;;;;;;11.77;100.00;101771.59;5550305;32;34462;-72
2022/10/28 04:04:09;;;;;;;;;;;;;;;11.68;100.00;101775.06;5550232;32;35123;-72
2022/10/28 04:07:16;;;;;;;;;;;;;;;11.60;100.00;101764.31;5550138;32;34482;-72
2022/10/28 04:10:23;;;;;;;;;;;;;;;11.75;100.00;101770.91;5537087;32;35051;-72
2022/10/28 04:13:27;;;;;;;;;;;;;;;11.81;100.00;101773.03;5550154;32;34909;-72
2022/10/28 04:16:35;;;;;;;;;;;;;;;11.77;100.00;101760.97;5550114;32;34515;-72
2022/10/28 04:19:43;;;;;;;;;;;;;;;11.74;100.00;101758.59;5549912;32;34381;-72
2022/10/28 04:22:50;;;;;;;;;;;;;;;11.73;100.00;101763.06;5549815;32;35208;-72
2022/10/28 04:26:01;;;;;;;;;;;;;;;11.66;100.00;101753.97;5535674;32;35099;-72
2022/10/28 04:29:10;;;;;;;;;;;;;;;11.73;100.00;101748.94;5550071;32;34834;-72
2022/10/28 04:32:17;;;;;;;;;;;;;;;11.68;100.00;101741.34;5552148;32;35109;-71
2022/10/28 04:35:22;;;;;;;;;;;;;;;11.63;100.00;101740.94;5539032;32;34511;-72
2022/10/28 04:38:29;;;;;;;;;;;;;;;11.73;100.00;101740.97;5538399;32;34498;-72
2022/10/28 04:41:37;;;;;;;;;;;;;;;11.60;100.00;101735.06;5552043;32;35135;-72
2022/10/28 04:44:41;;;;;;;;;;;;;;;11.94;100.00;101736.31;5552031;32;34627;-72
2022/10/28 04:47:48;;;;;;;;;;;;;;;11.78;100.00;101733.41;5552268;32;35234;-71
2022/10/28 04:50:52;;;;;;;;;;;;;;;11.79;100.00;101736.91;5552020;32;34602;-71
2022/10/28 04:53:59;;;;;;;;;;;;;;;11.72;100.00;101733.94;5551819;32;34731;-70
2022/10/28 04:57:04;;;;;;;;;;;;;;;11.63;100.00;101737.44;5551916;32;34793;-70
2022/10/28 05:00:08;;;;;;;;;;;;;;;11.66;100.00;101729.22;5551990;32;34573;-70
2022/10/28 05:03:15;;;;;;;;;;;;;;;11.51;100.00;101730.62;5551553;32;35184;-71
2022/10/28 05:06:20;;;;;;;;;;;;;;;11.56;100.00;101718.59;5551780;32;34270;-71
2022/10/28 05:09:25;;;;;;;;;;;;;;;11.58;100.00;101734.38;5551695;32;35137;-70
2022/10/28 05:12:30;;;;;;;;;;;;;;;11.57;100.00;101736.19;5551764;32;35084;-70
2022/10/28 05:15:34;;;;;;;;;;;;;;;11.58;100.00;101731.72;5551559;32;34444;-71
2022/10/28 05:18:38;;;;;;;;;;;;;;;11.61;100.00;101734.09;5551503;32;34423;-72
2022/10/28 05:21:45;;;;;;;;;;;;;;;11.60;100.00;101733.25;5551509;32;35262;-71
2022/10/28 05:24:50;;;;;;;;;;;;;;;11.67;100.00;101734.34;5551440;32;34435;-72
2022/10/28 05:28:01;;;;;;;;;;;;;;;11.57;100.00;101732.72;5551034;32;35188;-71
2022/10/28 05:31:07;;;;;;;;;;;;;;;11.52;100.00;101735.75;5551297;32;34609;-71
2022/10/28 05:34:11;;;;;;;;;;;;;;;11.49;100.00;101737.88;5551515;32;35062;-72
2022/10/28 05:37:15;;;;;;;;;;;;;;;11.49;100.00;101744.03;5537936;32;35368;-72
2022/10/28 05:40:20;;;;;;;;;;;;;;;11.34;100.00;101746.25;5551298;32;34501;-71
2022/10/28 05:43:24;;;;;;;;;;;;;;;11.50;100.00;101747.53;5551168;32;35145;-71
2022/10/28 05:46:28;;;;;;;;;;;;;;;11.49;100.00;101749.34;5551031;32;34931;-71
2022/10/28 05:49:32;;;;;;;;;;;;;;;11.47;100.00;101751.31;5551289;32;35142;-71
2022/10/28 05:52:36;;;;;;;;;;;;;;;11.46;100.00;101752.28;5551052;32;34540;-72
2022/10/28 05:55:40;;;;;;;;;;;;;;;11.55;100.00;101759.44;5551137;32;34963;-72
2022/10/28 05:58:50;;;;;;;;;;;;;;;11.45;100.00;101760.41;5551144;32;34535;-72
2022/10/28 06:01:54;;;;;;;;;;;;;;;11.39;100.00;101764.44;5550701;32;34570;-72
2022/10/28 06:04:58;;;;;;;;;;;;;;;11.38;100.00;101768.06;5550721;32;34825;-72
2022/10/28 06:08:03;;;;;;;;;;;;;;;11.35;100.00;101773.69;5536786;32;34453;-73
2022/10/28 06:11:07;;;;;;;;;;;;;;;11.39;100.00;101784.84;5536839;32;34515;-72
2022/10/28 06:14:10;;;;;;;;;;;;;;;11.41;100.00;101778.44;5536945;32;34779;-73
2022/10/28 06:17:13;;;;;;;;;;;;;;;11.39;100.00;101779.53;5536401;32;34853;-72
2022/10/28 06:20:17;;;;;;;;;;;;;;;11.45;100.00;101777.19;5537152;32;34405;-72
2022/10/28 06:23:22;;;;;;;;;;;;;;;11.42;100.00;101780.13;5550321;32;34945;-73
2022/10/28 06:26:25;;;;;;;;;;;;;;;11.39;100.00;101772.41;5550418;32;34724;-72
2022/10/28 06:29:31;;;;;;;;;;;;;;;11.44;100.00;101775.50;5536771;32;35055;-72
2022/10/28 06:32:35;;;;;;;;;;;;;;;11.48;100.00;101778.72;5536963;32;34855;-71
2022/10/28 06:35:39;;;;;;;;;;;;;;;11.50;100.00;101790.06;5537253;32;34318;-72
2022/10/28 06:38:43;;;;;;;;;;;;;;;11.52;100.00;101782.78;5550270;32;35192;-71
2022/10/28 06:41:47;;;;;;;;;;;;;;;11.50;100.00;101787.41;5550806;32;35167;-72
2022/10/28 06:44:51;;;;;;;;;;;;;;;11.49;100.00;101788.38;5550878;32;34401;-73
2022/10/28 06:47:55;;;;;;;;;;;;;;;11.49;100.00;101786.56;5550855;32;34973;-72
2022/10/28 06:50:58;;;;;;;;;;;;;;;11.48;100.00;101790.19;5550714;32;34389;-72
2022/10/28 06:54:01;;;;;;;;;;;;;;;11.50;100.00;101788.25;5536996;32;35760;-73
2022/10/28 06:57:06;;;;;;;;;;;;;;;11.51;100.00;101789.91;5550549;32;34530;-73
2022/10/28 07:00:09;;;;;;;;;;;;;;;11.59;100.00;101783.91;5537164;32;35184;-72
2022/10/28 07:03:12;;;;;;;;;;;;;;;11.68;100.00;101793.69;5536830;32;34422;-71
2022/10/28 07:06:15;;;;;;;;;;;;;;;11.63;100.00;101806.56;5537908;32;34501;-72
2022/10/28 07:09:19;;;;;;;;;;;;;;;11.73;100.00;101800.28;5536925;32;34355;-72
2022/10/28 07:12:24;;;;;;;;;;;;;;;11.76;100.00;101801.84;5550616;32;34971;-72
2022/10/28 07:15:29;;;;;;;;;;;;;;;11.76;100.00;101799.19;5550798;32;34664;-72
2022/10/28 07:18:32;;;;;;;;;;;;;;;11.80;100.00;101797.91;5550591;32;35199;-72
2022/10/28 07:21:34;;;;;;;;;;;;;;;11.79;100.00;101798.06;5550332;32;34431;-72
2022/10/28 07:24:38;;;;;;;;;;;;;;;11.70;100.00;101795.25;5523741;32;35235;-72
2022/10/28 07:27:41;;;;;;;;;;;;;;;11.76;100.00;101793.88;5550440;32;34500;-73
2022/10/28 07:30:44;;;;;;;;;;;;;;;11.78;100.00;101802.53;5550455;32;34797;-73
2022/10/28 07:33:51;;;;;;;;;;;;;;;11.59;100.00;101797.19;5550198;32;34563;-73
2022/10/28 07:36:55;;;;;;;;;;;;;;;11.57;100.00;101791.19;5550709;32;35045;-72
2022/10/28 07:39:58;;;;;;;;;;;;;;;11.74;100.00;101798.47;5536387;32;35920;-73
2022/10/28 07:43:02;;;;;;;;;;;;;;;11.81;100.00;101804.94;5550321;32;34781;-73
2022/10/28 07:46:06;;;;;;;;;;;;;;;11.61;100.00;101809.37;5523542;32;34053;-72
2022/10/28 07:49:12;;;;;;;;;;;;;;;11.70;100.00;101818.31;5536364;32;34679;-74
2022/10/28 07:52:17;;;;;;;;;;;;;;;11.74;100.00;101814.44;5550197;32;34445;-72
2022/10/28 07:55:22;;;;;;;;;;;;;;;11.66;100.00;101812.44;5536350;32;35885;-72
2022/10/28 07:58:25;;;;;;;;;;;;;;;11.80;100.00;101811.22;5536303;32;34323;-71
2022/10/28 08:01:29;;;;;;;;;;;;;;;11.73;100.00;101805.59;5536543;32;34808;-71
2022/10/28 08:04:32;;;;;;;;;;;;;;;11.56;100.00;101805.44;5549413;32;34602;-71
2022/10/28 08:07:37;;;;;;;;;;;;;;;11.60;100.00;101806.84;5535539;32;35289;-72
2022/10/28 08:10:42;;;;;;;;;;;;;;;11.62;100.00;101802.22;5535742;32;34529;-73
2022/10/28 08:13:46;;;;;;;;;;;;;;;11.67;100.00;101797.31;5549629;32;35117;-72
2022/10/28 08:16:50;;;;;;;;;;;;;;;11.91;100.00;101784.44;5549698;32;35124;-72
2022/10/28 08:19:54;;;;;;;;;;;;;;;11.83;100.00;101787.00;5549569;32;34437;-73
2022/10/28 08:23:01;;;;;;;;;;;;;;;11.94;100.00;101783.34;5536169;32;35127;-72
2022/10/28 08:26:09;;;;;;;;;;;;;;;12.06;100.00;101780.38;5536548;32;35304;-73
2022/10/28 08:29:12;;;;;;;;;;;;;;;12.07;100.00;101775.91;5549548;32;34932;-73
2022/10/28 08:32:14;;;;;;;;;;;;;;;11.98;100.00;101780.25;5549580;32;34517;-72
2022/10/28 08:35:17;;;;;;;;;;;;;;;12.29;100.00;101783.56;5536226;32;35051;-73
2022/10/28 08:38:20;;;;;;;;;;;;;;;12.31;100.00;101792.22;5549548;32;35214;-72
2022/10/28 08:41:28;;;;;;;;;;;;;;;12.53;100.00;101801.69;5549788;32;34505;-73
2022/10/28 08:45:01;;;;;;;;;;;;;;;12.51;100.00;101800.97;5549302;32;34434;-73
2022/10/28 08:48:14;;;;;;;;;;;;;;;12.54;100.00;101809.50;5536637;32;34775;-73
2022/10/28 08:51:23;;;;;;;;;;;;;;;12.15;100.00;101814.09;5522708;32;32659;-73
2022/10/28 08:54:31;;;;;;;;;;;;;;;12.37;100.00;101806.75;5535567;32;34642;-73
2022/10/28 08:57:38;;;;;;;;;;;;;;;12.13;100.00;101807.25;5535303;32;34432;-72
2022/10/28 09:00:45;;;;;;;;;;;;;;;11.98;100.00;101798.03;5548925;32;34605;-73
2022/10/28 09:03:50;;;;;;;;;;;;;;;12.35;100.00;101803.41;5534853;32;35399;-73
2022/10/28 09:06:53;;;;;;;;;;;;;;;12.39;100.00;101813.59;5534985;32;35725;-73
2022/10/28 09:09:58;;;;;;;;;;;;;;;12.49;100.00;101810.94;5548864;32;34492;-73
2022/10/28 09:13:10;;;;;;;;;;;;;;;12.29;100.00;101822.63;5548525;32;34986;-72
2022/10/28 09:16:16;;;;;;;;;;;;;;;12.22;100.00;101819.69;5549171;32;34553;-73
2022/10/28 09:19:25;;;;;;;;;;;;;;;12.56;100.00;101820.00;5537632;32;34632;-72
2022/10/28 09:22:35;;;;;;;;;;;;;;;12.27;100.00;101814.78;5537314;32;36677;-72
2022/10/28 09:25:53;;;;;;;;;;;;;;;12.48;100.00;101807.44;5551321;32;34973;-72
2022/10/28 09:29:15;;;;;;;;;;;;;;;12.82;100.00;101814.88;5551100;32;34912;-72
2022/10/28 09:32:21;;;;;;;;;;;;;;;12.90;100.00;101817.63;5551283;32;34427;-73
2022/10/28 09:35:25;;;;;;;;;;;;;;;12.83;100.00;101808.56;5551390;32;35288;-73
2022/10/28 09:38:31;;;;;;;;;;;;;;;12.59;100.00;101811.72;5537612;32;34949;-73
2022/10/28 09:41:37;;;;;;;;;;;;;;;12.71;100.00;101815.06;5539686;32;35068;-73
2022/10/28 09:44:49;;;;;;;;;;;;;;;12.82;100.00;101810.38;5538194;32;34534;-73
2022/10/28 09:48:10;;;;;;;;;;;;;;;12.54;100.00;101798.00;5551109;32;35111;-72
2022/10/28 09:51:33;;;;;;;;;;;;;;;12.47;100.00;101802.25;5551348;32;34585;-72
2022/10/28 09:54:40;;;;;;;;;;;;;;;12.42;100.00;101810.69;5551178;32;35180;-72
2022/10/28 09:57:44;;;;;;;;;;;;;;;12.75;100.00;101811.94;5551241;32;34350;-71
2022/10/28 10:00:48;;;;;;;;;;;;;;;12.63;100.00;101813.94;5551154;32;34501;-71
2022/10/28 10:03:52;;;;;;;;;;;;;;;12.72;100.00;101808.75;5551174;32;34520;-71
2022/10/28 10:06:58;;;;;;;;;;;;;;;12.64;100.00;101804.13;5536749;32;35152;-72
2022/10/28 10:10:13;;;;;;;;;;;;;;;12.51;100.00;101793.00;5537933;32;35160;-73
2022/10/28 10:13:20;;;;;;;;;;;;;;;12.61;100.00;101807.94;5537082;32;34529;-72
2022/10/28 10:16:28;;;;;;;;;;;;;;;13.06;100.00;101815.16;5551135;32;34665;-72
2022/10/28 10:20:11;;;;;;;;;;;;;;;13.22;100.00;101810.03;5537288;32;34381;-71
2022/10/28 10:23:22;;;;;;;;;;;;;;;12.91;100.00;101814.81;5472298;32;34599;-72
2022/10/28 10:26:31;;;;;;;;;;;;;;;13.21;100.00;101815.53;5459965;32;35785;-72
2022/10/28 10:29:34;;;;;;;;;;;;;;;12.59;100.00;101801.06;5472195;32;34502;-71
2022/10/28 10:32:37;;;;;;;;;;;;;;;12.64;100.00;101812.13;5472563;32;35172;-72
2022/10/28 10:35:40;;;;;;;;;;;;;;;12.48;100.00;101802.13;5472433;32;35235;-73
2022/10/28 10:38:48;;;;;;;;;;;;;;;12.44;100.00;101799.91;5459787;32;35693;-73
2022/10/28 10:41:52;;;;;;;;;;;;;;;12.52;100.00;101810.66;5472422;32;35053;-72
2022/10/28 10:45:00;;;;;;;;;;;;;;;12.68;100.00;101810.03;5460355;32;34498;-73
2022/10/28 10:48:12;;;;;;;;;;;;;;;13.03;100.00;101804.78;5472470;32;33858;-72
2022/10/28 10:51:15;;;;;;;;;;;;;;;13.13;100.00;101807.44;5472415;32;34759;-71
2022/10/28 10:54:19;;;;;;;;;;;;;;;12.74;100.00;101796.09;5513231;32;34318;-72
2022/10/28 10:57:23;;;;;;;;;;;;;;;12.57;100.00;101792.41;5551064;32;34523;-72
2022/10/28 11:00:30;;;;;;;;;;;;;;;12.86;100.00;101798.44;5550783;32;34514;-72
2022/10/28 11:03:37;;;;;;;;;;;;;;;12.78;100.00;101797.53;5550886;32;34593;-71
2022/10/28 11:06:42;;;;;;;;;;;;;;;12.68;100.00;101794.06;5550657;32;35432;-70
2022/10/28 11:09:48;;;;;;;;;;;;;;;12.67;100.00;101789.72;5550781;32;34908;-70
2022/10/28 11:12:53;;;;;;;;;;;;;;;12.51;100.00;101791.16;5536969;32;35851;-70
2022/10/28 11:16:01;;;;;;;;;;;;;;;12.41;100.00;101792.19;5550594;32;34496;-70
2022/10/28 11:19:14;;;;;;;;;;;;;;;12.56;100.00;101794.22;5536772;32;35230;-72
2022/10/28 11:22:23;;;;;;;;;;;;;;;12.71;100.00;101785.75;5550640;32;34938;-72
2022/10/28 11:25:27;;;;;;;;;;;;;;;12.87;100.00;101784.16;5550482;32;34571;-71
2022/10/28 11:28:32;;;;;;;;;;;;;;;13.07;100.00;101787.50;5550485;32;34859;-70
2022/10/28 11:31:50;;;;;;;;;;;;;;;12.79;100.00;101793.84;5550483;32;34530;-70
2022/10/28 11:35:02;;;;;;;;;;;;;;;12.86;100.00;101786.94;5550119;32;34626;-70
2022/10/28 11:38:11;;;;;;;;;;;;;;;12.74;100.00;101785.47;5536524;32;34081;-72
2022/10/28 11:41:33;;;;;;;;;;;;;;;12.66;100.00;101785.38;5549626;32;34543;-71
2022/10/28 11:44:39;;;;;;;;;;;;;;;12.59;100.00;101777.13;5550355;32;34503;-71
2022/10/28 11:47:46;;;;;;;;;;;;;;;12.82;100.00;101774.94;5535987;32;33353;-72
2022/10/28 11:50:57;;;;;;;;;;;;;;;12.60;100.00;101774.31;5550483;32;35143;-71
2022/10/28 11:54:22;;;;;;;;;;;;;;;12.77;100.00;101769.19;5536681;32;34794;-72
2022/10/28 11:57:25;;;;;;;;;;;;;;;13.01;100.00;101767.66;5550368;32;34787;-71
2022/10/28 12:00:34;;;;;;;;;;;;;;;13.03;100.00;101763.00;5550131;32;35239;-71
2022/10/28 12:03:41;;;;;;;;;;;;;;;13.13;100.00;101756.81;5550233;32;35157;-70
2022/10/28 12:06:47;;;;;;;;;;;;;;;13.04;100.00;101755.84;5550109;32;35075;-70
2022/10/28 12:10:05;;;;;;;;;;;;;;;12.60;100.00;101745.03;5550096;32;34520;-71
2022/10/28 12:13:08;;;;;;;;;;;;;;;12.57;100.00;101740.00;5549995;32;34422;-70
2022/10/28 12:16:18;;;;;;;;;;;;;;;12.77;100.00;101743.41;5550040;32;34563;-71
2022/10/28 12:19:26;;;;;;;;;;;;;;;12.77;100.00;101735.44;5519396;32;529553;-70
2022/10/28 12:22:48;;;;;;;;;;;;;;;12.72;100.00;101737.69;5535717;32;35206;-71
2022/10/28 12:25:56;;;;;;;;;;;;;;;12.96;100.00;101731.81;5549785;32;34403;-71
2022/10/28 12:29:04;;;;;;;;;;;;;;;12.87;100.00;101735.37;5535850;32;34955;-70
2022/10/28 12:32:19;;;;;;;;;;;;;;;13.02;100.00;101729.34;5549635;32;34985;-72
2022/10/28 12:35:25;;;;;;;;;;;;;;;13.20;100.00;101734.75;5535749;32;33348;-71
2022/10/28 12:38:37;;;;;;;;;;;;;;;13.29;100.00;101730.31;5535722;32;34936;-71
2022/10/28 12:41:48;;;;;;;;;;;;;;;13.31;100.00;101733.69;5549694;32;35328;-71
2022/10/28 12:44:55;;;;;;;;;;;;;;;13.25;100.00;101729.81;5535479;32;35271;-71
2022/10/28 12:48:02;;;;;;;;;;;;;;;12.83;100.00;101726.81;5549437;32;34519;-71
2022/10/28 12:51:13;;;;;;;;;;;;;;;12.79;100.00;101728.09;5550515;32;35207;-71
2022/10/28 12:54:27;;;;;;;;;;;;;;;12.80;100.00;101728.94;5551806;32;34444;-71
2022/10/28 12:57:33;;;;;;;;;;;;;;;12.96;100.00;101729.97;5538170;32;34723;-70
2022/10/28 13:00:42;;;;;;;;;;;;;;;12.83;100.00;101718.03;5551889;32;34455;-71
2022/10/28 13:03:48;;;;;;;;;;;;;;;12.63;100.00;101707.44;5551852;32;34736;-71
2022/10/28 13:07:10;;;;;;;;;;;;;;;12.60;100.00;101713.09;5538007;32;34825;-71
2022/10/28 13:10:21;;;;;;;;;;;;;;;12.56;100.00;101702.88;5537751;32;34547;-71
2022/10/28 13:13:35;;;;;;;;;;;;;;;12.61;100.00;101708.59;5551730;32;34476;-71
2022/10/28 13:16:49;;;;;;;;;;;;;;;12.71;100.00;101708.53;5525263;32;33127;-70
2022/10/28 13:19:58;;;;;;;;;;;;;;;12.35;100.00;101703.12;5551810;32;34808;-71
2022/10/28 13:23:25;;;;;;;;;;;;;;;12.38;100.00;101702.84;5524592;32;34755;-72
2022/10/28 13:26:31;;;;;;;;;;;;;;;12.52;100.00;101707.66;5551178;32;34525;-71
2022/10/28 13:29:35;;;;;;;;;;;;;;;12.45;100.00;101703.06;5551308;32;35136;-70
2022/10/28 13:32:41;;;;;;;;;;;;;;;12.43;100.00;101707.72;5551409;32;34783;-70
2022/10/28 13:35:46;;;;;;;;;;;;;;;12.38;100.00;101707.31;5551191;32;35170;-70
2022/10/28 13:38:55;;;;;;;;;;;;;;;12.49;100.00;101707.94;5538091;32;35126;-70
2022/10/28 13:42:22;;;;;;;;;;;;;;;12.51;100.00;101707.81;5537560;32;36402;-70
2022/10/28 13:45:44;;;;;;;;;;;;;;;12.46;100.00;101705.59;5551185;32;34617;-71
2022/10/28 13:48:49;;;;;;;;;;;;;;;12.64;100.00;101708.28;5550951;32;34884;-71
2022/10/28 13:52:17;;;;;;;;;;;;;;;12.46;100.00;101702.94;5537816;32;34435;-70
2022/10/28 13:55:24;;;;;;;;;;;;;;;12.27;100.00;101700.34;5537134;32;32887;-70
2022/10/28 13:58:29;;;;;;;;;;;;;;;12.34;100.00;101697.97;5537507;32;34920;-71
2022/10/28 14:01:36;;;;;;;;;;;;;;;12.37;100.00;101695.84;5537161;32;33366;-70
2022/10/28 14:04:42;;;;;;;;;;;;;;;12.48;100.00;101706.28;5537051;32;34776;-70
2022/10/28 14:08:00;;;;;;;;;;;;;;;12.36;100.00;101706.62;5525218;32;34607;-71
2022/10/28 14:11:12;;;;;;;;;;;;;;;12.46;100.00;101710.91;5537160;32;35990;-71
2022/10/28 14:14:19;;;;;;;;;;;;;;;12.46;100.00;101712.75;5537003;32;34878;-71
2022/10/28 14:17:28;;;;;;;;;;;;;;;12.35;100.00;101713.75;5537205;32;35417;-71
2022/10/28 14:20:33;;;;;;;;;;;;;;;12.47;100.00;101714.41;5523773;32;34676;-71
2022/10/28 14:23:41;;;;;;;;;;;;;;;12.64;100.00;101713.62;5550901;32;34659;-71
2022/10/28 14:27:03;;;;;;;;;;;;;;;12.54;100.00;101707.50;5550867;32;35170;-72
2022/10/28 14:30:13;;;;;;;;;;;;;;;12.62;100.00;101708.47;5536172;32;35247;-71
2022/10/28 14:33:19;;;;;;;;;;;;;;;12.63;100.00;101709.31;5550723;32;34852;-71
2022/10/28 14:36:42;;;;;;;;;;;;;;;12.72;100.00;101708.41;5550519;32;34861;-72
2022/10/28 14:40:14;;;;;;;;;;;;;;;12.71;100.00;101693.41;5536657;32;35716;-71
2022/10/28 14:43:37;;;;;;;;;;;;;;;12.65;100.00;101707.31;5550249;32;34451;-72
2022/10/28 14:46:44;;;;;;;;;;;;;;;12.74;100.00;101702.91;5549637;32;35222;-72
2022/10/28 14:50:00;;;;;;;;;;;;;;;12.67;100.00;101702.69;5536498;32;34947;-71
2022/10/28 14:53:07;;;;;;;;;;;;;;;12.60;100.00;101702.44;5536887;32;35053;-71
2022/10/28 14:56:19;;;;;;;;;;;;;;;12.51;100.00;101705.16;5549739;32;35142;-71
2022/10/28 14:59:26;;;;;;;;;;;;;;;12.52;100.00;101699.69;5549894;32;34422;-71
2022/10/28 15:02:31;;;;;;;;;;;;;;;12.52;100.00;101693.53;5536395;32;34681;-71
2022/10/28 15:05:36;;;;;;;;;;;;;;;12.62;100.00;101691.66;5550144;32;35084;-71
2022/10/28 15:08:41;;;;;;;;;;;;;;;12.30;100.00;101688.56;5549930;32;34418;-72
2022/10/28 15:11:46;;;;;;;;;;;;;;;12.25;100.00;101693.53;5549530;32;34717;-72
2022/10/28 15:14:53;;;;;;;;;;;;;;;12.18;100.00;101687.94;5548542;32;35012;-72
2022/10/28 15:17:59;;;;;;;;;;;;;;;12.27;100.00;101687.06;5549763;32;34585;-72
2022/10/28 15:21:09;;;;;;;;;;;;;;;12.15;100.00;101675.75;5530188;32;35310;-71
2022/10/28 15:24:14;;;;;;;;;;;;;;;12.08;100.00;101677.34;5530176;32;35782;-72
2022/10/28 15:27:21;;;;;;;;;;;;;;;12.17;100.00;101675.62;5530892;32;35089;-72
2022/10/28 15:30:24;;;;;;;;;;;;;;;12.11;100.00;101668.22;5530021;32;35287;-71
2022/10/28 15:33:29;;;;;;;;;;;;;;;12.13;100.00;101664.44;5529882;32;33793;-71
2022/10/28 15:36:33;;;;;;;;;;;;;;;12.03;100.00;101660.13;5529725;32;34815;-71
2022/10/28 15:39:39;;;;;;;;;;;;;;;11.92;100.00;101658.50;5531127;32;34334;-71
2022/10/28 15:42:58;;;;;;;;;;;;;;;11.87;100.00;101655.44;5531007;32;35104;-71
2022/10/28 15:46:15;;;;;;;;;;;;;;;11.81;100.00;101665.81;5529978;32;35175;-71
2022/10/28 15:49:40;;;;;;;;;;;;;;;11.86;100.00;101661.72;5530280;32;34561;-71
2022/10/28 15:52:48;;;;;;;;;;;;;;;11.90;100.00;101656.97;5530863;32;34289;-71